createdAt,value
2022-10-11T00:00:12.068Z,99970.00
2022-10-11T00:02:41.548Z,99975.00
2022-10-11T00:05:21.870Z,99969.06
2022-10-11T00:07:58.883Z,99960.06
2022-10-11T00:10:35.497Z,99949.75
2022-10-11T00:13:17.419Z,99948.91
2022-10-11T00:15:56.027Z,99965.75
2022-10-11T00:18:46.630Z,99958.75
2022-10-11T00:21:27.126Z,99956.41
2022-10-11T00:24:07.444Z,99951.75
2022-10-11T00:26:52.618Z,99963.75
2022-10-11T00:29:34.346Z,99952.44
2022-10-11T00:32:14.617Z,99937.44
2022-10-11T00:34:52.429Z,99947.28
2022-10-11T00:37:36.147Z,99941.63
2022-10-11T00:40:18.399Z,99955.91
2022-10-11T00:43:10.607Z,99944.44
2022-10-11T00:46:55.850Z,99950.78
2022-10-11T00:49:46.081Z,99944.44
2022-10-11T00:52:31.971Z,99944.78
2022-10-11T00:55:19.902Z,99952.59
2022-10-11T00:57:58.051Z,99955.09
2022-10-11T01:00:39.816Z,99939.44
2022-10-11T01:03:20.907Z,99944.44
2022-10-11T01:06:18.538Z,99944.09
2022-10-11T01:11:49.263Z,99943.28
2022-10-11T01:14:51.981Z,99950.44
2022-10-11T01:18:09.868Z,99939.13
2022-10-11T01:21:10.029Z,99934.47
2022-10-11T01:24:04.693Z,99938.44
2022-10-11T01:27:07.067Z,99929.63
2022-10-11T01:30:16.856Z,99925.63
2022-10-11T01:33:23.944Z,99926.63
2022-10-11T01:36:16.668Z,99931.47
2022-10-11T01:39:05.470Z,99938.63
2022-10-11T01:41:51.375Z,99931.78
2022-10-11T01:44:28.148Z,99933.44
2022-10-11T01:47:24.112Z,99942.56
2022-10-11T01:50:05.880Z,99941.91
2022-10-11T01:52:43.608Z,99935.03
2022-10-11T01:55:34.891Z,99937.06
2022-10-11T01:58:28.344Z,99942.72
2022-10-11T02:02:22.138Z,99938.91
2022-10-11T02:05:36.851Z,99936.75
2022-10-11T02:08:36.759Z,99950.72
2022-10-11T02:11:30.439Z,99948.34
2022-10-11T02:17:59.924Z,99945.28
2022-10-11T02:20:41.964Z,99942.78
2022-10-11T02:23:40.804Z,99938.81
2022-10-11T02:26:17.772Z,99918.50
2022-10-11T02:28:57.746Z,99938.50
2022-10-11T02:31:37.846Z,99936.00
2022-10-11T02:34:40.241Z,99940.53
2022-10-11T02:37:44.902Z,99940.81
2022-10-11T02:40:43.471Z,99952.31
2022-10-11T02:43:41.857Z,99941.16
2022-10-11T02:46:18.560Z,99955.28
2022-10-11T02:49:00.980Z,99946.81
2022-10-11T02:51:46.108Z,99946.59
2022-10-11T02:54:23.911Z,99948.97
2022-10-11T02:57:04.071Z,99950.13
2022-10-11T02:59:48.712Z,99947.47
2022-10-11T03:02:25.296Z,99944.13
2022-10-11T03:05:06.357Z,99946.09
2022-10-11T03:07:44.534Z,99950.03
2022-10-11T03:10:30.364Z,99945.16
2022-10-11T03:13:40.424Z,99941.00
2022-10-11T03:16:21.006Z,99932.06
2022-10-11T03:19:03.472Z,99944.16
2022-10-11T03:21:41.671Z,99944.09
2022-10-11T03:24:17.909Z,99939.31
2022-10-11T03:27:04.125Z,99946.66
2022-10-11T03:29:41.705Z,99918.59
2022-10-11T03:32:21.921Z,99934.94
2022-10-11T03:35:00.052Z,99933.59
2022-10-11T03:37:41.909Z,99933.00
2022-10-11T03:40:23.897Z,99931.00
2022-10-11T03:43:03.406Z,99917.53
2022-10-11T03:45:46.520Z,99914.84
2022-10-11T03:48:25.449Z,99924.84
2022-10-11T03:51:18.185Z,99912.09
2022-10-11T03:54:05.139Z,99909.22
2022-10-11T03:56:50.452Z,99910.03
2022-10-11T03:59:30.153Z,99907.19
2022-10-11T04:02:10.239Z,99916.13
2022-10-11T04:04:52.044Z,99924.72
2022-10-11T04:07:30.606Z,99904.06
2022-10-11T04:10:11.230Z,99923.53
2022-10-11T04:15:50.638Z,99914.69
2022-10-11T04:18:37.077Z,99908.19
2022-10-11T04:21:22.606Z,99910.66
2022-10-11T04:24:00.338Z,99917.59
2022-10-11T04:26:44.430Z,99912.78
2022-10-11T04:29:20.914Z,99913.13
2022-10-11T04:32:00.255Z,99902.84
2022-10-11T04:34:46.500Z,99899.56
2022-10-11T04:37:38.264Z,99917.88
2022-10-11T04:50:53.825Z,99923.81
2022-10-11T04:54:23.321Z,99926.53
2022-10-11T04:57:31.872Z,99917.28
2022-10-11T05:00:14.767Z,99927.78
2022-10-11T05:13:16.760Z,99927.44
2022-10-11T05:16:11.118Z,99924.97
2022-10-11T05:29:16.014Z,99925.31
2022-10-11T05:31:51.945Z,99923.66
2022-10-11T05:34:33.168Z,99908.63
2022-10-11T05:37:12.953Z,99921.78
2022-10-11T05:40:00.827Z,99930.53
2022-10-11T05:42:38.185Z,99917.00
2022-10-11T05:45:23.892Z,99914.59
2022-10-11T05:48:15.211Z,99922.97
2022-10-11T05:50:51.881Z,99912.16
2022-10-11T05:53:31.368Z,99913.38
2022-10-11T05:56:21.703Z,99914.59
2022-10-11T05:59:02.230Z,99909.50
2022-10-11T06:01:40.605Z,99901.88
2022-10-11T06:04:22.162Z,99894.97
2022-10-11T06:06:59.738Z,99906.88
2022-10-11T06:09:40.100Z,99901.25
2022-10-11T06:12:17.345Z,99898.56
2022-10-11T06:15:23.811Z,99903.59
2022-10-11T06:18:25.371Z,99894.78
2022-10-11T06:21:10.669Z,99891.00
2022-10-11T06:23:55.572Z,99897.91
2022-10-11T06:27:00.789Z,99887.13
2022-10-11T06:29:41.701Z,99889.81
2022-10-11T06:32:41.513Z,99892.22
2022-10-11T06:35:41.424Z,99894.75
2022-10-11T06:38:45.238Z,99892.97
2022-10-11T06:41:45.260Z,99892.63
2022-10-11T06:44:59.986Z,99891.47
2022-10-11T06:47:45.579Z,99886.00
2022-10-11T06:50:59.458Z,99883.00
2022-10-11T06:53:39.001Z,99880.94
2022-10-11T06:56:52.144Z,99872.53
2022-10-11T06:59:34.899Z,99879.16
2022-10-11T07:02:13.251Z,99881.88
2022-10-11T07:08:38.686Z,99887.09
2022-10-11T07:12:05.433Z,99881.13
2022-10-11T07:14:42.813Z,99879.84
2022-10-11T07:17:19.554Z,99875.94
2022-10-11T07:20:20.071Z,99888.59
2022-10-11T07:23:48.129Z,99881.53
2022-10-11T07:26:51.713Z,99879.47
2022-10-11T07:43:03.040Z,99867.38
2022-10-11T07:45:56.309Z,99878.47
2022-10-11T07:48:44.467Z,99868.53
2022-10-11T07:51:42.006Z,99868.69
2022-10-11T07:54:49.249Z,99870.72
2022-10-11T07:57:35.456Z,99868.97
2022-10-11T08:00:18.289Z,99856.00
2022-10-11T08:02:54.927Z,99865.34
2022-10-11T08:05:38.522Z,99855.38
2022-10-11T08:08:45.928Z,99851.94
2022-10-11T08:11:31.178Z,99853.88
2022-10-11T08:14:41.522Z,99857.19
2022-10-11T08:17:21.694Z,99850.53
2022-10-11T08:20:11.260Z,99843.41
2022-10-11T08:23:03.720Z,99841.16
2022-10-11T08:25:49.289Z,99847.91
2022-10-11T08:28:30.568Z,99842.66
2022-10-11T08:31:15.345Z,99833.34
2022-10-11T08:33:56.658Z,99839.63
2022-10-11T08:36:35.371Z,99844.13
2022-10-11T08:39:15.235Z,99836.38
2022-10-11T08:42:17.856Z,99836.72
2022-10-11T08:45:10.002Z,99832.16
2022-10-11T08:47:40.312Z,99832.78
2022-10-11T08:50:18.170Z,99828.56
2022-10-11T08:52:55.644Z,99819.63
2022-10-11T08:55:35.086Z,99817.13
2022-10-11T08:58:02.518Z,99814.78
2022-10-11T09:00:32.268Z,99809.69
2022-10-11T09:03:13.253Z,99805.44
2022-10-11T09:05:55.433Z,99798.31
2022-10-11T09:08:28.736Z,99802.63
2022-10-11T09:11:06.763Z,99800.81
2022-10-11T09:13:59.871Z,99791.34
2022-10-11T09:16:51.332Z,99792.50
2022-10-11T09:19:56.741Z,99786.56
2022-10-11T09:22:35.746Z,99785.22
2022-10-11T09:25:24.430Z,99778.31
2022-10-11T09:28:13.362Z,99775.56
2022-10-11T09:30:48.966Z,99774.56
2022-10-11T09:33:24.777Z,99777.31
2022-10-11T09:35:52.887Z,99774.59
2022-10-11T09:38:45.246Z,99766.41
2022-10-11T09:41:43.370Z,99762.06
2022-10-11T09:44:28.676Z,99760.16
2022-10-11T09:46:56.866Z,99761.75
2022-10-11T09:49:30.755Z,99752.72
2022-10-11T09:52:00.547Z,99753.56
2022-10-11T09:54:43.001Z,99745.38
2022-10-11T09:57:26.527Z,99736.38
2022-10-11T10:00:00.781Z,99743.78
2022-10-11T10:05:12.042Z,99743.22
2022-10-11T10:07:43.629Z,99740.22
2022-10-11T10:10:43.881Z,99740.78
2022-10-11T10:13:22.945Z,99736.66
2022-10-11T10:15:54.845Z,99735.00
2022-10-11T10:18:37.651Z,99733.97
2022-10-11T10:21:08.134Z,99728.75
2022-10-11T10:26:40.113Z,99726.41
2022-10-11T10:29:33.661Z,99722.38
2022-10-11T10:35:23.794Z,99719.91
2022-10-11T10:41:21.959Z,99708.00
2022-10-11T10:44:11.211Z,99705.31
2022-10-11T10:50:15.057Z,99692.88
2022-10-11T10:53:11.951Z,99692.59
2022-10-11T10:55:43.371Z,99691.00
2022-10-11T10:58:16.461Z,99694.53
2022-10-11T11:01:02.759Z,99688.56
2022-10-11T11:03:42.786Z,99693.25
2022-10-11T11:12:11.851Z,99681.00
2022-10-11T11:14:44.666Z,99677.94
2022-10-11T11:17:37.822Z,99660.78
2022-10-11T11:20:25.139Z,99669.94
2022-10-11T11:26:51.826Z,99657.00
2022-10-11T11:29:39.073Z,99652.19
2022-10-11T11:32:36.421Z,99650.13
2022-10-11T11:39:17.000Z,99641.75
2022-10-11T11:41:49.099Z,99632.50
2022-10-11T11:44:27.147Z,99636.94
2022-10-11T11:47:02.115Z,99628.25
2022-10-11T11:49:35.734Z,99625.28
2022-10-11T11:52:05.608Z,99633.94
2022-10-11T11:55:19.527Z,99624.28
2022-10-11T11:58:10.314Z,99633.97
2022-10-11T12:00:50.797Z,99623.19
2022-10-11T12:03:24.764Z,99616.34
2022-10-11T12:06:16.710Z,99624.38
2022-10-11T12:11:38.711Z,99612.50
2022-10-11T12:14:39.199Z,99618.28
2022-10-11T12:20:27.452Z,99606.16
2022-10-11T12:23:00.522Z,99612.69
2022-10-11T12:25:28.644Z,99605.78
2022-10-11T12:28:39.604Z,99595.72
2022-10-11T12:31:20.486Z,99597.72
2022-10-11T12:33:48.504Z,99602.44
2022-10-11T12:36:37.661Z,99597.88
2022-10-11T12:39:29.184Z,99598.38
2022-10-11T12:42:21.451Z,99589.88
2022-10-11T12:45:13.281Z,99587.75
2022-10-11T12:47:43.108Z,99589.56
2022-10-11T12:50:18.547Z,99588.22
2022-10-11T12:53:01.471Z,99593.81
2022-10-11T12:55:49.762Z,99586.31
2022-10-11T12:58:43.531Z,99584.06
2022-10-11T13:01:14.829Z,99581.75
2022-10-11T13:04:00.504Z,99583.91
2022-10-11T13:06:57.027Z,99576.34
2022-10-11T13:09:29.809Z,99577.16
2022-10-11T13:11:59.662Z,99571.06
2022-10-11T13:14:27.827Z,99569.63
2022-10-11T13:17:04.073Z,99567.13
2022-10-11T13:20:06.005Z,99569.00
2022-10-11T13:22:35.323Z,99566.81
2022-10-11T13:25:08.390Z,99566.50
2022-10-11T13:27:40.924Z,99557.50
2022-10-11T13:30:12.178Z,99566.56
2022-10-11T13:32:39.485Z,99560.56
2022-10-11T13:35:24.994Z,99552.25
2022-10-11T13:38:22.271Z,99563.06
2022-10-11T13:40:51.155Z,99561.13
2022-10-11T13:43:30.291Z,99556.59
2022-10-11T13:46:23.844Z,99556.06
2022-10-11T13:51:57.988Z,99555.16
2022-10-11T13:54:25.452Z,99562.09
2022-10-11T13:56:56.782Z,99558.97
2022-10-11T13:59:28.318Z,99564.31
2022-10-11T14:02:00.449Z,99556.59
2022-10-11T14:04:29.878Z,99562.97
2022-10-11T14:07:03.236Z,99559.97
2022-10-11T14:09:40.926Z,99563.41
2022-10-11T14:12:40.930Z,99560.03
2022-10-11T14:15:33.192Z,99559.22
2022-10-11T14:18:01.867Z,99563.63
2022-10-11T14:20:42.194Z,99558.84
2022-10-11T14:23:09.167Z,99563.66
2022-10-11T14:25:36.122Z,99557.94
2022-10-11T14:28:11.810Z,99560.25
2022-10-11T14:30:42.730Z,99562.44
2022-10-11T14:33:11.479Z,99561.28
2022-10-11T14:35:38.731Z,99558.34
2022-10-11T14:38:05.837Z,99567.03
2022-10-11T14:40:33.050Z,99565.34
2022-10-11T14:43:00.046Z,99564.38
2022-10-11T14:45:27.099Z,99574.25
2022-10-11T14:47:55.729Z,99569.31
2022-10-11T14:50:37.699Z,99570.47
2022-10-11T14:53:06.142Z,99575.38
2022-10-11T14:55:34.950Z,99572.31
2022-10-11T14:58:01.983Z,99576.78
2022-10-11T15:03:12.522Z,99577.91
2022-10-11T15:05:42.244Z,99578.66
2022-10-11T15:10:56.805Z,99576.53
2022-10-11T15:13:23.763Z,99582.84
2022-10-11T15:15:51.459Z,99590.81
2022-10-11T15:18:22.286Z,99583.09
2022-10-11T15:20:51.808Z,99569.84
2022-10-11T15:23:19.259Z,99586.81
2022-10-11T15:25:47.602Z,99579.84
2022-10-11T15:28:27.533Z,99588.22
2022-10-11T15:30:59.371Z,99589.19
2022-10-11T15:33:32.793Z,99595.22
2022-10-11T15:36:00.054Z,99591.72
2022-10-11T15:38:30.544Z,99592.63
2022-10-11T15:41:10.621Z,99593.75
2022-10-11T15:43:40.704Z,99593.75
2022-10-11T15:46:08.507Z,99588.44
2022-10-11T15:48:35.911Z,99588.88
2022-10-11T15:51:02.934Z,99588.88
2022-10-11T15:53:34.347Z,99586.22
2022-10-11T15:56:05.592Z,99583.56
2022-10-11T15:58:37.820Z,99585.44
2022-10-11T16:01:19.391Z,99589.78
2022-10-11T16:03:48.109Z,99583.19
2022-10-11T16:06:43.223Z,99593.53
2022-10-11T16:09:10.957Z,99584.00
2022-10-11T16:11:44.187Z,99588.59
2022-10-11T16:14:11.504Z,99586.91
2022-10-11T16:16:38.651Z,99585.69
2022-10-11T16:19:05.596Z,99589.78
2022-10-11T16:21:32.505Z,99586.31
2022-10-11T16:24:13.458Z,99588.34
2022-10-11T16:26:45.697Z,99581.09
2022-10-11T16:29:15.868Z,99574.91
2022-10-11T16:31:43.347Z,99571.59
2022-10-11T16:34:10.584Z,99572.81
2022-10-11T16:36:40.837Z,99585.19
2022-10-11T16:39:18.551Z,99576.31
2022-10-11T16:41:46.159Z,99588.03
2022-10-11T16:44:15.263Z,99585.53
2022-10-11T16:47:34.955Z,99572.94
2022-10-11T16:50:05.117Z,99579.66
2022-10-11T16:52:41.116Z,99573.25
2022-10-11T16:55:19.667Z,99543.28
2022-10-11T16:57:58.236Z,99559.78
2022-10-11T17:00:28.694Z,99576.06
2022-10-11T17:02:58.044Z,99579.50
2022-10-11T17:05:27.635Z,99567.31
2022-10-11T17:07:57.742Z,99564.66
2022-10-11T17:10:41.098Z,99566.28
2022-10-11T17:13:08.194Z,99559.25
2022-10-11T17:15:36.288Z,99564.59
2022-10-11T17:18:03.838Z,99562.09
2022-10-11T17:20:30.777Z,99552.00
2022-10-11T17:22:58.131Z,99562.72
2022-10-11T17:25:25.348Z,99560.81
2022-10-11T17:27:55.568Z,99561.03
2022-10-11T17:30:24.124Z,99556.69
2022-10-11T17:32:52.003Z,99557.09
2022-10-11T17:35:24.302Z,99560.28
2022-10-11T17:37:55.538Z,99555.25
2022-10-11T17:40:25.415Z,99538.63
2022-10-11T17:43:07.055Z,99544.13
2022-10-11T17:45:41.058Z,99550.31
2022-10-11T17:48:08.319Z,99531.34
2022-10-11T17:50:35.264Z,99527.22
2022-10-11T17:53:02.128Z,99543.56
2022-10-11T17:55:29.184Z,99544.22
2022-10-11T17:57:56.286Z,99543.47
2022-10-11T18:00:25.415Z,99543.38
2022-10-11T18:02:57.190Z,99552.16
2022-10-11T18:05:26.194Z,99544.25
2022-10-11T18:07:53.907Z,99538.66
2022-10-11T18:15:53.571Z,99552.22
2022-10-11T18:21:08.765Z,99540.75
2022-10-11T18:23:38.356Z,99526.50
2022-10-11T18:26:32.110Z,99540.69
2022-10-11T18:29:01.872Z,99528.75
2022-10-11T18:31:32.357Z,99545.63
2022-10-11T18:33:59.484Z,99537.16
2022-10-11T18:36:28.140Z,99533.91
2022-10-11T18:41:46.478Z,99532.66
2022-10-11T18:44:17.533Z,99529.53
2022-10-11T18:47:09.701Z,99535.50
2022-10-11T18:49:37.454Z,99531.69
2022-10-11T18:52:04.639Z,99523.66
2022-10-11T18:54:32.252Z,99527.50
2022-10-11T18:57:01.547Z,99530.91
2022-10-11T18:59:28.935Z,99525.69
2022-10-11T19:01:56.123Z,99515.56
2022-10-11T19:04:23.781Z,99512.84
2022-10-11T19:06:53.456Z,99514.31
2022-10-11T19:09:23.143Z,99518.19
2022-10-11T19:11:51.444Z,99513.00
2022-10-11T19:14:20.877Z,99512.91
2022-10-11T19:16:51.365Z,99507.25
2022-10-11T19:19:27.653Z,99507.38
2022-10-11T19:21:55.094Z,99503.78
2022-10-11T19:24:24.292Z,99504.34
2022-10-11T19:26:53.105Z,99506.25
2022-10-11T19:29:23.799Z,99510.34
2022-10-11T19:31:56.134Z,99503.69
2022-10-11T19:34:26.997Z,99504.91
2022-10-11T19:36:56.609Z,99505.72
2022-10-11T19:39:24.817Z,99506.28
2022-10-11T19:41:57.683Z,99508.84
2022-10-11T19:44:24.619Z,99509.69
2022-10-11T19:46:52.689Z,99509.69
2022-10-11T19:49:24.806Z,99512.88
2022-10-11T19:51:53.147Z,99514.38
2022-10-11T19:54:20.085Z,99513.06
2022-10-11T19:56:50.118Z,99509.94
2022-10-11T19:59:17.638Z,99510.22
2022-10-11T20:01:49.379Z,99512.16
2022-10-11T20:04:33.494Z,99501.59
2022-10-11T20:07:06.152Z,99508.66
2022-10-11T20:09:33.110Z,99508.81
2022-10-11T20:12:00.141Z,99506.53
2022-10-11T20:14:34.274Z,99505.06
2022-10-11T20:17:46.414Z,99500.25
2022-10-11T20:20:17.516Z,99493.16
2022-10-11T20:22:44.878Z,99501.41
2022-10-11T20:25:14.707Z,99491.78
2022-10-11T20:27:44.462Z,99500.13
2022-10-11T20:30:12.280Z,99496.69
2022-10-11T20:32:42.115Z,99488.91
2022-10-11T20:35:10.267Z,99491.03
2022-10-11T20:37:37.394Z,99486.25
2022-10-11T20:40:05.064Z,99489.38
2022-10-11T20:42:31.929Z,99486.41
2022-10-11T20:44:59.205Z,99491.91
2022-10-11T20:47:31.231Z,99482.34
2022-10-11T20:49:58.711Z,99486.72
2022-10-11T20:52:26.061Z,99484.06
2022-10-11T20:54:53.034Z,99487.09
2022-10-11T20:57:20.098Z,99487.44
2022-10-11T20:59:48.007Z,99474.13
2022-10-11T21:02:18.852Z,99488.56
2022-10-11T21:04:46.131Z,99476.97
2022-10-11T21:07:13.127Z,99473.47
2022-10-11T21:09:40.015Z,99472.53
2022-10-11T21:12:07.043Z,99473.19
2022-10-11T21:14:36.455Z,99472.16
2022-10-11T21:17:03.441Z,99473.56
2022-10-11T21:19:33.547Z,99470.25
2022-10-11T21:22:00.487Z,99472.81
2022-10-11T21:24:27.421Z,99476.84
2022-10-11T21:26:59.596Z,99476.84
2022-10-11T21:29:27.624Z,99475.53
2022-10-11T21:31:54.538Z,99479.56
2022-10-11T21:34:21.996Z,99483.03
2022-10-11T21:36:49.138Z,99477.75
2022-10-11T21:39:16.523Z,99479.59
2022-10-11T21:41:43.399Z,99473.63
2022-10-11T21:44:10.530Z,99470.31
2022-10-11T21:47:05.004Z,99472.19
2022-10-11T21:49:26.508Z,99476.91
2022-10-11T21:51:53.866Z,99472.56
2022-10-11T21:54:20.707Z,99461.94
2022-10-11T21:56:47.619Z,99463.41
2022-10-11T21:59:14.768Z,99465.09
2022-10-11T22:01:41.935Z,99461.41
2022-10-11T22:04:09.717Z,99466.25
2022-10-11T22:06:39.625Z,99470.72
2022-10-11T22:09:07.474Z,99474.44
2022-10-11T22:11:34.916Z,99465.34
2022-10-11T22:14:02.297Z,99466.00
2022-10-11T22:16:29.164Z,99467.69
2022-10-11T22:18:56.169Z,99473.03
2022-10-11T22:21:24.137Z,99465.06
2022-10-11T22:23:52.740Z,99460.78
2022-10-11T22:26:22.766Z,99465.63
2022-10-11T22:28:50.114Z,99468.47
2022-10-11T22:31:18.932Z,99462.84
2022-10-11T22:36:19.349Z,99468.84
2022-10-11T22:38:46.865Z,99464.84
2022-10-11T22:41:13.761Z,99467.84
2022-10-11T22:43:43.399Z,99465.53
2022-10-11T22:46:10.873Z,99463.38
2022-10-11T22:48:37.953Z,99459.06
2022-10-11T22:51:05.359Z,99456.91
2022-10-11T22:53:33.444Z,99465.22
2022-10-11T22:56:00.540Z,99460.22
2022-10-11T22:58:27.535Z,99456.91
2022-10-11T23:00:54.472Z,99455.06
2022-10-11T23:03:21.476Z,99455.06
2022-10-11T23:05:56.967Z,99462.38
2022-10-11T23:08:24.582Z,99456.41
2022-10-11T23:10:51.807Z,99453.91
2022-10-11T23:13:19.000Z,99448.25
2022-10-11T23:15:47.920Z,99447.44
2022-10-11T23:18:19.165Z,99442.94
2022-10-11T23:20:46.061Z,99450.28
2022-10-11T23:23:13.115Z,99460.03
2022-10-11T23:25:41.074Z,99447.78
2022-10-11T23:28:13.462Z,99443.28
2022-10-11T23:30:41.731Z,99443.28
2022-10-11T23:33:11.387Z,99445.28
2022-10-11T23:35:38.297Z,99432.63
2022-10-11T23:38:08.064Z,99439.28
2022-10-11T23:40:34.911Z,99441.59
2022-10-11T23:43:02.016Z,99440.13
2022-10-11T23:45:28.922Z,99434.34
2022-10-11T23:47:56.001Z,99436.31
2022-10-11T23:50:22.852Z,99438.97
2022-10-11T23:52:49.815Z,99430.34
2022-10-11T23:55:16.866Z,99428.69
2022-10-11T23:57:43.850Z,99434.81
